createdAt,value
2019-05-05T00:01:45.061Z,12.67
2019-05-05T00:04:19.118Z,9.03
2019-05-05T00:06:51.506Z,9.17
2019-05-05T00:09:25.168Z,10.13
2019-05-05T00:12:16.000Z,5.27
2019-05-05T00:15:06.241Z,9.97
2019-05-05T00:17:40.485Z,6.47
2019-05-05T00:20:14.515Z,7.00
2019-05-05T00:22:46.086Z,9.50
2019-05-05T00:25:20.073Z,9.17
2019-05-05T00:27:51.673Z,8.83
2019-05-05T00:30:24.916Z,7.77
2019-05-05T00:32:56.439Z,6.23
2019-05-05T00:35:29.250Z,9.00
2019-05-05T00:38:01.091Z,7.63
2019-05-05T00:40:35.273Z,6.97
2019-05-05T00:43:07.254Z,7.33
2019-05-05T00:45:40.457Z,11.33
2019-05-05T00:48:15.284Z,6.03
2019-05-05T00:50:46.600Z,8.27
2019-05-05T00:53:17.205Z,10.20
2019-05-05T00:55:49.114Z,7.13
2019-05-05T00:58:21.688Z,10.67
2019-05-05T01:00:57.549Z,6.20
2019-05-05T01:03:30.201Z,9.30
2019-05-05T01:06:04.576Z,9.87
2019-05-05T01:08:37.423Z,4.57
2019-05-05T01:11:10.140Z,8.03
2019-05-05T01:13:45.540Z,6.83
2019-05-05T01:16:16.915Z,8.87
2019-05-05T01:18:51.265Z,6.63
2019-05-05T01:21:24.438Z,8.80
2019-05-05T01:23:58.459Z,7.33
2019-05-05T01:26:30.957Z,12.73
2019-05-05T01:29:05.203Z,6.63
2019-05-05T01:31:37.673Z,8.37
2019-05-05T01:34:16.781Z,7.80
2019-05-05T01:36:54.369Z,7.77
2019-05-05T01:39:34.700Z,6.60
2019-05-05T01:42:19.473Z,8.80
2019-05-05T01:44:55.282Z,8.87
2019-05-05T01:47:27.650Z,12.53
2019-05-05T01:49:59.108Z,6.23
2019-05-05T01:52:31.686Z,9.07
2019-05-05T01:55:05.293Z,7.07
2019-05-05T01:57:37.957Z,12.50
2019-05-05T02:00:10.118Z,7.30
2019-05-05T02:02:44.841Z,10.20
2019-05-05T02:05:16.870Z,6.40
2019-05-05T02:07:48.738Z,5.13
2019-05-05T02:10:21.129Z,8.13
2019-05-05T02:12:55.243Z,5.77
2019-05-05T02:15:26.822Z,7.20
2019-05-05T02:17:58.521Z,7.50
2019-05-05T02:20:41.186Z,10.20
2019-05-05T02:23:15.657Z,8.77
2019-05-05T02:25:48.533Z,10.97
2019-05-05T02:28:21.158Z,9.50
2019-05-05T02:31:07.629Z,13.20
2019-05-05T02:33:39.101Z,9.10
2019-05-05T02:36:11.517Z,10.23
2019-05-05T02:38:46.574Z,4.63
2019-05-05T02:41:19.107Z,10.07
2019-05-05T02:43:50.670Z,8.50
2019-05-05T02:46:30.062Z,13.10
2019-05-05T02:49:05.448Z,6.13
2019-05-05T02:51:40.295Z,8.20
2019-05-05T02:54:13.719Z,7.53
2019-05-05T02:56:48.333Z,7.33
2019-05-05T02:59:25.810Z,5.47
2019-05-05T03:01:59.290Z,7.67
2019-05-05T03:04:30.821Z,7.87
2019-05-05T03:07:04.725Z,6.90
2019-05-05T03:09:39.277Z,10.03
2019-05-05T03:12:11.310Z,6.03
2019-05-05T03:14:46.257Z,8.00
2019-05-05T03:17:19.706Z,9.17
2019-05-05T03:19:53.401Z,10.00
2019-05-05T03:22:27.077Z,7.13
2019-05-05T03:25:00.098Z,9.53
2019-05-05T03:27:34.097Z,7.03
2019-05-05T03:30:06.550Z,8.37
2019-05-05T03:32:39.021Z,6.37
2019-05-05T03:35:13.555Z,9.53
2019-05-05T03:37:46.161Z,6.30
2019-05-05T03:40:20.077Z,10.30
2019-05-05T03:42:59.453Z,5.47
2019-05-05T03:45:44.483Z,10.17
2019-05-05T03:48:17.644Z,7.27
2019-05-05T03:50:53.919Z,11.23
2019-05-05T03:53:25.839Z,6.50
2019-05-05T03:55:58.021Z,7.97
2019-05-05T03:58:34.538Z,10.43
2019-05-05T04:01:34.609Z,9.87
2019-05-05T04:04:26.429Z,9.17
2019-05-05T04:06:59.695Z,7.63
2019-05-05T04:09:33.993Z,11.57
2019-05-05T04:12:05.636Z,9.07
2019-05-05T04:14:38.447Z,8.93
2019-05-05T04:17:14.173Z,7.93
2019-05-05T04:19:54.344Z,9.30
2019-05-05T04:22:28.274Z,7.97
2019-05-05T04:24:59.701Z,8.27
2019-05-05T04:27:34.192Z,7.63
2019-05-05T04:30:07.358Z,6.57
2019-05-05T04:32:39.081Z,8.60
2019-05-05T04:35:10.929Z,10.00
2019-05-05T04:37:44.410Z,6.93
2019-05-05T04:40:18.884Z,8.03
2019-05-05T04:42:51.574Z,11.60
2019-05-05T04:45:24.236Z,10.13
2019-05-05T04:48:04.299Z,12.03
2019-05-05T04:50:36.997Z,8.97
2019-05-05T04:53:10.005Z,10.17
2019-05-05T04:55:44.211Z,10.73
2019-05-05T04:58:15.745Z,7.47
2019-05-05T05:00:47.237Z,7.70
2019-05-05T05:03:31.993Z,12.30
2019-05-05T05:06:06.385Z,12.30
2019-05-05T05:08:40.860Z,9.20
2019-05-05T05:11:14.161Z,8.93
2019-05-05T05:13:47.073Z,14.17
2019-05-05T05:16:38.298Z,7.47
2019-05-05T05:19:10.885Z,9.73
2019-05-05T05:21:43.714Z,10.97
2019-05-05T05:24:16.133Z,11.23
2019-05-05T05:26:48.461Z,9.53
2019-05-05T05:29:20.777Z,10.37
2019-05-05T05:31:54.955Z,8.70
2019-05-05T05:34:27.301Z,9.57
2019-05-05T05:36:59.061Z,15.63
2019-05-05T05:39:43.944Z,8.37
2019-05-05T05:42:15.637Z,10.40
2019-05-05T05:44:53.514Z,9.67
2019-05-05T05:47:27.789Z,9.10
2019-05-05T05:50:07.541Z,13.57
2019-05-05T05:52:44.137Z,7.63
2019-05-05T05:55:15.840Z,13.80
2019-05-05T05:57:47.237Z,11.23
2019-05-05T06:00:18.462Z,10.47
2019-05-05T06:02:51.262Z,11.60
2019-05-05T06:05:24.846Z,8.97
2019-05-05T06:07:57.149Z,11.87
2019-05-05T06:10:29.714Z,12.97
2019-05-05T06:13:03.914Z,10.10
2019-05-05T06:15:36.386Z,8.83
2019-05-05T06:18:09.094Z,11.37
2019-05-05T06:20:44.607Z,10.07
2019-05-05T06:23:17.193Z,8.30
2019-05-05T06:25:51.110Z,10.07
2019-05-05T06:28:24.317Z,12.53
2019-05-05T06:30:59.909Z,13.77
2019-05-05T06:33:31.753Z,12.70
2019-05-05T06:36:04.588Z,14.10
2019-05-05T06:38:36.417Z,11.30
2019-05-05T06:41:25.257Z,17.77
2019-05-05T06:43:58.350Z,15.30
2019-05-05T06:46:34.400Z,11.43
2019-05-05T06:49:05.852Z,16.10
2019-05-05T06:51:39.923Z,16.67
2019-05-05T06:54:15.053Z,16.10
2019-05-05T06:56:49.105Z,15.33
2019-05-05T06:59:21.592Z,12.93
2019-05-05T07:01:53.643Z,21.40
2019-05-05T07:04:28.242Z,17.90
2019-05-05T07:06:59.789Z,11.43
2019-05-05T07:09:33.585Z,18.37
2019-05-05T07:12:08.238Z,14.70
2019-05-05T07:14:39.777Z,17.23
2019-05-05T07:17:14.155Z,14.67
2019-05-05T07:19:46.424Z,16.60
2019-05-05T07:22:19.155Z,26.03
2019-05-05T07:24:54.193Z,15.33
2019-05-05T07:27:28.438Z,24.83
2019-05-05T07:30:04.780Z,22.77
2019-05-05T07:32:37.661Z,21.53
2019-05-05T07:35:24.662Z,23.87
2019-05-05T07:37:58.993Z,22.97
2019-05-05T07:40:32.086Z,18.67
2019-05-05T07:43:04.661Z,22.03
2019-05-05T07:45:37.407Z,24.27
2019-05-05T07:48:08.867Z,22.90
2019-05-05T07:50:43.623Z,18.30
2019-05-05T07:53:18.003Z,16.23
2019-05-05T07:55:49.866Z,21.80
2019-05-05T07:58:24.277Z,26.83
2019-05-05T08:00:56.214Z,26.63
2019-05-05T08:03:28.745Z,22.50
2019-05-05T08:06:00.296Z,21.70
2019-05-05T08:08:33.627Z,22.40
2019-05-05T08:11:07.037Z,21.67
2019-05-05T08:13:41.208Z,19.13
2019-05-05T08:16:29.089Z,26.17
2019-05-05T08:19:15.310Z,20.10
2019-05-05T08:21:48.053Z,18.87
2019-05-05T08:24:24.283Z,18.63
2019-05-05T08:26:58.604Z,21.40
2019-05-05T08:29:34.597Z,21.83
2019-05-05T08:32:13.650Z,19.20
2019-05-05T08:34:57.489Z,24.03
2019-05-05T08:37:20.017Z,15.50
2019-05-05T08:39:51.592Z,21.10
2019-05-05T08:42:24.703Z,16.93
2019-05-05T08:44:56.606Z,20.57
2019-05-05T08:47:28.367Z,16.60
2019-05-05T08:50:04.161Z,19.70
2019-05-05T08:52:36.657Z,18.00
2019-05-05T08:55:08.168Z,17.93
2019-05-05T08:57:40.036Z,25.77
2019-05-05T09:00:13.815Z,24.30
2019-05-05T09:02:49.965Z,26.30
2019-05-05T09:05:23.742Z,23.90
2019-05-05T09:07:57.152Z,22.33
2019-05-05T09:10:28.717Z,23.50
2019-05-05T09:13:00.078Z,23.47
2019-05-05T09:15:33.825Z,18.03
2019-05-05T09:18:08.005Z,23.87
2019-05-05T09:20:39.845Z,20.17
2019-05-05T09:23:14.562Z,23.93
2019-05-05T09:26:04.416Z,19.87
2019-05-05T09:28:49.199Z,22.27
2019-05-05T09:31:23.857Z,16.63
2019-05-05T09:33:55.260Z,22.03
2019-05-05T09:36:27.853Z,23.97
2019-05-05T09:39:00.457Z,24.67
2019-05-05T09:41:34.012Z,19.93
2019-05-05T09:44:06.489Z,21.80
2019-05-05T09:46:39.783Z,15.33
2019-05-05T09:49:14.101Z,22.83
2019-05-05T09:51:46.030Z,14.03
2019-05-05T09:54:18.521Z,18.57
2019-05-05T09:56:51.214Z,15.63
2019-05-05T09:59:25.737Z,13.33
2019-05-05T10:01:58.439Z,21.33
2019-05-05T10:04:31.634Z,13.63
2019-05-05T10:07:05.245Z,10.80
2019-05-05T10:09:39.572Z,15.83
2019-05-05T10:12:14.155Z,11.60
2019-05-05T10:14:45.997Z,13.80
2019-05-05T10:17:18.498Z,14.27
2019-05-05T10:19:50.253Z,11.60
2019-05-05T10:22:23.861Z,13.90
2019-05-05T10:24:58.470Z,15.90
2019-05-05T10:27:44.008Z,13.13
2019-05-05T10:30:06.594Z,16.30
2019-05-05T10:32:37.957Z,14.33
2019-05-05T10:35:09.168Z,15.47
2019-05-05T10:37:40.241Z,10.77
2019-05-05T10:40:14.632Z,17.23
2019-05-05T10:42:54.000Z,10.80
2019-05-05T10:45:26.652Z,12.73
2019-05-05T10:47:59.325Z,13.70
2019-05-05T10:50:34.122Z,16.37
2019-05-05T10:53:05.960Z,14.33
2019-05-05T10:55:39.009Z,14.10
2019-05-05T10:58:13.652Z,12.30
2019-05-05T11:00:46.957Z,10.70
2019-05-05T11:03:20.429Z,12.37
2019-05-05T11:05:53.803Z,14.90
2019-05-05T11:08:25.847Z,16.43
2019-05-05T11:10:58.449Z,13.90
2019-05-05T11:13:34.447Z,9.07
2019-05-05T11:16:06.801Z,10.53
2019-05-05T11:18:39.187Z,14.80
2019-05-05T11:21:11.373Z,11.43
2019-05-05T11:23:44.788Z,16.37
2019-05-05T11:26:16.843Z,11.17
2019-05-05T11:28:49.270Z,12.27
2019-05-05T11:31:23.921Z,17.07
2019-05-05T11:34:09.993Z,16.03
2019-05-05T11:36:54.404Z,15.67
2019-05-05T11:39:26.074Z,16.07
2019-05-05T11:41:57.813Z,15.13
2019-05-05T11:44:30.515Z,10.10
2019-05-05T11:47:03.704Z,10.40
2019-05-05T11:49:36.349Z,10.80
2019-05-05T11:52:10.344Z,11.33
2019-05-05T11:54:43.895Z,12.53
2019-05-05T11:57:18.556Z,13.33
2019-05-05T11:59:50.934Z,10.10
2019-05-05T12:02:24.375Z,15.23
2019-05-05T12:04:56.981Z,10.87
2019-05-05T12:07:31.181Z,11.57
2019-05-05T12:10:05.509Z,11.10
2019-05-05T12:12:37.366Z,9.97
2019-05-05T12:15:10.105Z,15.83
2019-05-05T12:17:44.222Z,12.07
2019-05-05T12:20:36.766Z,13.70
2019-05-05T12:23:09.293Z,11.83
2019-05-05T12:25:46.362Z,12.73
2019-05-05T12:28:25.376Z,11.10
2019-05-05T12:31:03.577Z,9.53
2019-05-05T12:33:36.265Z,16.40
2019-05-05T12:36:09.081Z,23.07
2019-05-05T12:38:43.949Z,10.97
2019-05-05T12:41:16.419Z,9.47
2019-05-05T12:43:48.765Z,12.77
2019-05-05T12:46:39.053Z,12.33
2019-05-05T12:49:14.356Z,8.50
2019-05-05T12:51:46.209Z,7.07
2019-05-05T12:54:20.429Z,5.23
2019-05-05T12:56:54.473Z,3.80
2019-05-05T12:59:27.789Z,4.70
2019-05-05T13:02:00.466Z,6.00
2019-05-05T13:04:33.940Z,9.23
2019-05-05T13:07:08.329Z,7.30
2019-05-05T13:09:41.312Z,8.57
2019-05-05T13:12:14.996Z,7.47
2019-05-05T13:14:47.965Z,9.27
2019-05-05T13:17:20.779Z,6.63
2019-05-05T13:19:54.958Z,6.50
2019-05-05T13:22:35.941Z,7.77
2019-05-05T13:25:24.646Z,12.37
2019-05-05T13:28:00.141Z,6.70
2019-05-05T13:30:34.593Z,9.03
2019-05-05T13:33:06.133Z,7.20
2019-05-05T13:35:38.749Z,9.63
2019-05-05T13:38:14.456Z,8.03
2019-05-05T13:40:45.999Z,6.93
2019-05-05T13:43:18.324Z,6.23
2019-05-05T13:45:56.961Z,5.07
2019-05-05T13:48:28.395Z,8.07
2019-05-05T13:51:04.145Z,7.33
2019-05-05T13:53:36.230Z,5.10
2019-05-05T13:56:12.124Z,4.83
2019-05-05T13:58:43.716Z,7.50
2019-05-05T14:01:16.606Z,8.43
2019-05-05T14:03:49.005Z,9.40
2019-05-05T14:06:21.297Z,11.77
2019-05-05T14:08:54.268Z,9.10
2019-05-05T14:11:26.294Z,8.73
2019-05-05T14:14:00.237Z,8.13
2019-05-05T14:16:34.064Z,6.63
2019-05-05T14:19:06.688Z,20.90
2019-05-05T14:21:38.438Z,9.07
2019-05-05T14:24:14.362Z,9.23
2019-05-05T14:26:46.923Z,7.77
2019-05-05T14:29:37.661Z,6.73
2019-05-05T14:32:13.560Z,8.87
2019-05-05T14:34:50.832Z,6.77
2019-05-05T14:37:35.183Z,9.20
2019-05-05T14:40:11.142Z,9.00
2019-05-05T14:42:43.478Z,10.33
2019-05-05T14:45:16.169Z,9.40
2019-05-05T14:47:49.468Z,10.00
2019-05-05T14:50:24.016Z,10.50
2019-05-05T14:52:55.105Z,11.97
2019-05-05T14:55:26.641Z,11.33
2019-05-05T14:57:58.394Z,10.60
2019-05-05T15:00:33.535Z,11.83
2019-05-05T15:03:04.950Z,8.77
2019-05-05T15:05:37.974Z,6.90
2019-05-05T15:08:18.318Z,6.17
2019-05-05T15:10:58.941Z,8.47
2019-05-05T15:13:31.203Z,10.17
2019-05-05T15:16:04.163Z,7.23
2019-05-05T15:18:37.034Z,6.00
2019-05-05T15:21:11.658Z,7.10
2019-05-05T15:23:43.714Z,9.80
2019-05-05T15:26:16.609Z,6.33
2019-05-05T15:28:58.584Z,8.60
2019-05-05T15:31:23.816Z,8.00
2019-05-05T15:33:56.529Z,9.17
2019-05-05T15:36:29.745Z,10.17
2019-05-05T15:39:04.480Z,7.57
2019-05-05T15:41:36.197Z,10.43
2019-05-05T15:44:09.281Z,7.90
2019-05-05T15:46:40.877Z,13.10
2019-05-05T15:49:13.375Z,7.93
2019-05-05T15:51:50.090Z,12.33
2019-05-05T15:54:23.741Z,10.23
2019-05-05T15:57:04.874Z,9.17
2019-05-05T15:59:30.577Z,8.13
2019-05-05T16:02:04.272Z,9.73
2019-05-05T16:04:37.085Z,8.87
2019-05-05T16:07:09.057Z,8.70
2019-05-05T16:09:44.001Z,7.50
2019-05-05T16:12:15.114Z,15.13
2019-05-05T16:14:48.076Z,8.70
2019-05-05T16:17:34.232Z,10.60
2019-05-05T16:20:10.573Z,9.67
2019-05-05T16:22:43.811Z,14.00
2019-05-05T16:25:19.987Z,13.83
2019-05-05T16:27:50.833Z,10.60
2019-05-05T16:30:23.603Z,8.53
2019-05-05T16:32:56.493Z,10.53
2019-05-05T16:35:28.351Z,9.93
2019-05-05T16:37:59.844Z,10.70
2019-05-05T16:40:33.883Z,9.77
2019-05-05T16:43:08.457Z,9.73
2019-05-05T16:45:41.143Z,10.93
2019-05-05T16:48:14.576Z,8.20
2019-05-05T16:50:45.936Z,12.27
2019-05-05T16:53:37.774Z,9.67
2019-05-05T16:56:17.918Z,11.00
2019-05-05T16:58:49.313Z,8.73
2019-05-05T17:01:21.998Z,9.93
2019-05-05T17:04:08.188Z,11.63
2019-05-05T17:06:28.558Z,14.93
2019-05-05T17:09:00.941Z,11.67
2019-05-05T17:11:33.621Z,10.20
2019-05-05T17:14:13.568Z,9.80
2019-05-05T17:16:49.345Z,11.17
2019-05-05T17:19:23.561Z,13.37
2019-05-05T17:21:56.981Z,12.53
2019-05-05T17:24:29.334Z,10.00
2019-05-05T17:27:01.054Z,9.23
2019-05-05T17:29:34.476Z,8.33
2019-05-05T17:32:07.133Z,8.30
2019-05-05T17:34:38.043Z,8.03
2019-05-05T17:37:10.236Z,10.53
2019-05-05T17:39:45.502Z,8.57
2019-05-05T17:42:24.004Z,7.17
2019-05-05T17:45:14.353Z,7.50
2019-05-05T17:47:53.904Z,9.47
2019-05-05T17:50:29.374Z,10.27
2019-05-05T17:53:15.713Z,6.33
2019-05-05T17:55:47.077Z,10.37
2019-05-05T17:58:18.934Z,8.50
2019-05-05T18:00:55.941Z,7.60
2019-05-05T18:03:29.045Z,11.20
2019-05-05T18:06:05.404Z,9.03
2019-05-05T18:08:38.133Z,12.17
2019-05-05T18:11:25.262Z,9.33
2019-05-05T18:14:08.480Z,10.80
2019-05-05T18:16:39.946Z,10.33
2019-05-05T18:19:14.437Z,6.00
2019-05-05T18:21:46.834Z,6.17
2019-05-05T18:24:18.282Z,11.07
2019-05-05T18:26:50.633Z,10.27
2019-05-05T18:29:24.112Z,9.07
2019-05-05T18:31:57.394Z,9.27
2019-05-05T18:34:30.032Z,9.67
2019-05-05T18:37:03.623Z,15.37
2019-05-05T18:39:35.830Z,10.20
2019-05-05T18:42:09.249Z,11.43
2019-05-05T18:44:44.372Z,9.17
2019-05-05T18:47:19.055Z,8.50
2019-05-05T18:49:51.025Z,9.57
2019-05-05T18:52:24.523Z,10.70
2019-05-05T18:54:56.461Z,15.87
2019-05-05T18:57:27.997Z,13.40
2019-05-05T19:00:00.193Z,8.10
2019-05-05T19:02:44.272Z,7.03
2019-05-05T19:05:23.572Z,12.83
2019-05-05T19:08:05.762Z,8.97
2019-05-05T19:10:38.036Z,9.03
2019-05-05T19:13:08.891Z,10.80
2019-05-05T19:15:40.345Z,11.53
2019-05-05T19:18:14.018Z,10.17
2019-05-05T19:20:56.422Z,9.00
2019-05-05T19:23:29.203Z,10.80
2019-05-05T19:26:03.807Z,8.93
2019-05-05T19:28:44.430Z,8.07
2019-05-05T19:31:10.025Z,10.63
2019-05-05T19:33:41.870Z,11.47
2019-05-05T19:36:14.664Z,9.47
2019-05-05T19:38:47.409Z,11.90
2019-05-05T19:41:23.750Z,7.93
2019-05-05T19:43:55.307Z,7.97
2019-05-05T19:46:35.821Z,9.40
2019-05-05T19:49:15.439Z,11.47
2019-05-05T19:51:48.694Z,5.73
2019-05-05T19:54:21.166Z,10.87
2019-05-05T19:56:54.341Z,8.30
2019-05-05T19:59:26.246Z,11.67
2019-05-05T20:01:58.669Z,9.17
2019-05-05T20:04:30.958Z,11.60
2019-05-05T20:07:04.481Z,9.83
2019-05-05T20:09:39.175Z,9.37
2019-05-05T20:12:11.898Z,9.30
2019-05-05T20:14:44.580Z,8.83
2019-05-05T20:17:21.266Z,10.77
2019-05-05T20:19:55.325Z,7.13
2019-05-05T20:22:27.510Z,11.73
2019-05-05T20:24:59.233Z,10.77
2019-05-05T20:27:31.781Z,8.77
2019-05-05T20:30:06.517Z,9.47
2019-05-05T20:32:40.070Z,8.33
2019-05-05T20:35:23.987Z,9.10
2019-05-05T20:37:58.552Z,9.40
2019-05-05T20:40:34.845Z,11.43
2019-05-05T20:43:06.905Z,8.97
2019-05-05T20:45:38.362Z,9.27
2019-05-05T20:48:12.403Z,12.63
2019-05-05T20:50:45.990Z,8.33
2019-05-05T20:53:18.505Z,7.67
2019-05-05T20:55:50.862Z,8.30
2019-05-05T20:58:23.911Z,10.07
2019-05-05T21:00:56.207Z,6.80
2019-05-05T21:03:27.657Z,9.70
2019-05-05T21:06:01.644Z,6.97
2019-05-05T21:08:34.861Z,10.07
2019-05-05T21:11:06.509Z,12.07
2019-05-05T21:13:37.954Z,7.70
2019-05-05T21:16:10.263Z,7.43
2019-05-05T21:18:42.917Z,8.90
2019-05-05T21:21:16.069Z,8.83
2019-05-05T21:23:55.466Z,8.20
2019-05-05T21:26:28.282Z,7.77
2019-05-05T21:29:02.117Z,7.93
2019-05-05T21:31:34.637Z,8.17
2019-05-05T21:34:07.131Z,5.73
2019-05-05T21:36:38.853Z,12.90
2019-05-05T21:39:11.385Z,10.83
2019-05-05T21:41:43.786Z,11.93
2019-05-05T21:44:16.374Z,11.40
2019-05-05T21:46:47.273Z,9.83
2019-05-05T21:49:19.886Z,9.20
2019-05-05T21:51:56.469Z,10.73
2019-05-05T21:54:41.077Z,9.60
2019-05-05T21:57:31.924Z,8.20
2019-05-05T22:00:04.677Z,8.63
2019-05-05T22:02:37.253Z,12.03
2019-05-05T22:05:10.053Z,8.80
2019-05-05T22:07:41.797Z,11.50
2019-05-05T22:10:13.777Z,9.33
2019-05-05T22:12:44.797Z,10.63
2019-05-05T22:15:19.210Z,13.53
2019-05-05T22:17:54.303Z,8.97
2019-05-05T22:20:30.152Z,9.67
2019-05-05T22:23:03.746Z,11.10
2019-05-05T22:25:34.817Z,9.97
2019-05-05T22:28:07.129Z,9.50
2019-05-05T22:30:39.801Z,9.93
2019-05-05T22:33:14.179Z,11.00
2019-05-05T22:35:46.968Z,10.80
2019-05-05T22:38:19.458Z,8.40
2019-05-05T22:40:51.161Z,11.27
2019-05-05T22:43:24.001Z,10.20
2019-05-05T22:45:56.137Z,11.77
2019-05-05T22:48:28.010Z,11.57
2019-05-05T22:51:00.806Z,9.93
2019-05-05T22:53:34.683Z,12.43
2019-05-05T22:56:08.173Z,11.70
2019-05-05T22:58:39.658Z,8.47
2019-05-05T23:01:13.645Z,10.50
2019-05-05T23:03:49.534Z,9.73
2019-05-05T23:06:32.769Z,12.67
2019-05-05T23:09:07.662Z,10.73
2019-05-05T23:11:39.229Z,8.23
2019-05-05T23:14:30.050Z,12.47
2019-05-05T23:17:07.382Z,9.40
2019-05-05T23:19:56.979Z,11.27
2019-05-05T23:22:34.800Z,13.57
2019-05-05T23:25:10.937Z,11.20
2019-05-05T23:27:50.336Z,15.33
2019-05-05T23:30:37.823Z,10.33
2019-05-05T23:33:00.239Z,10.27
2019-05-05T23:35:31.647Z,14.80
2019-05-05T23:38:04.254Z,10.47
2019-05-05T23:40:37.810Z,13.23
2019-05-05T23:43:10.092Z,33.80
2019-05-05T23:45:41.817Z,22.27
2019-05-05T23:48:14.509Z,15.57
2019-05-05T23:50:46.273Z,13.23
2019-05-05T23:53:18.590Z,12.27
2019-05-05T23:55:51.193Z,14.43
2019-05-05T23:58:24.131Z,15.00
